createdAt,value
2022-11-01T00:01:53.484Z,91.90
2022-11-01T00:04:20.614Z,91.90
2022-11-01T00:06:48.378Z,91.90
2022-11-01T00:09:16.591Z,91.90
2022-11-01T00:11:43.383Z,91.90
2022-11-01T00:14:15.321Z,91.80
2022-11-01T00:16:42.831Z,91.80
2022-11-01T00:19:10.021Z,91.80
2022-11-01T00:21:37.100Z,91.80
2022-11-01T00:24:04.029Z,91.80
2022-11-01T00:26:30.771Z,91.80
2022-11-01T00:28:57.545Z,91.80
2022-11-01T00:31:24.508Z,91.90
2022-11-01T00:33:51.241Z,91.80
2022-11-01T00:36:18.271Z,91.80
2022-11-01T00:38:45.133Z,91.90
2022-11-01T00:41:12.930Z,91.80
2022-11-01T00:43:39.637Z,91.80
2022-11-01T00:46:06.380Z,91.80
2022-11-01T00:48:33.202Z,91.80
2022-11-01T00:50:59.883Z,91.80
2022-11-01T00:53:26.621Z,91.80
2022-11-01T00:55:53.399Z,91.80
2022-11-01T00:58:20.211Z,91.70
2022-11-01T01:00:48.155Z,91.70
2022-11-01T01:03:15.132Z,91.70
2022-11-01T01:05:41.879Z,91.70
2022-11-01T01:08:08.608Z,91.70
2022-11-01T01:10:35.582Z,91.70
2022-11-01T01:13:02.693Z,91.80
2022-11-01T01:15:29.717Z,91.70
2022-11-01T01:17:56.543Z,91.70
2022-11-01T01:20:23.999Z,91.80
2022-11-01T01:22:50.917Z,91.80
2022-11-01T01:25:18.003Z,91.80
2022-11-01T01:27:44.739Z,91.80
2022-11-01T01:30:12.245Z,91.80
2022-11-01T01:32:38.919Z,91.80
2022-11-01T01:35:06.328Z,91.80
2022-11-01T01:37:33.287Z,91.70
2022-11-01T01:40:00.217Z,91.70
2022-11-01T01:42:31.016Z,91.70
2022-11-01T01:45:10.862Z,91.70
2022-11-01T01:47:40.373Z,91.70
2022-11-01T01:50:30.953Z,91.70
2022-11-01T01:53:08.463Z,91.70
2022-11-01T01:55:38.105Z,91.80
2022-11-01T01:58:06.809Z,91.70
2022-11-01T02:00:33.770Z,91.70
2022-11-01T02:03:01.008Z,91.70
2022-11-01T02:05:39.101Z,91.70
2022-11-01T02:08:06.979Z,91.70
2022-11-01T02:10:34.587Z,91.70
2022-11-01T02:13:01.401Z,91.70
2022-11-01T02:15:59.370Z,91.60
2022-11-01T02:18:33.417Z,91.70
2022-11-01T02:21:08.955Z,91.70
2022-11-01T02:24:20.786Z,91.70
2022-11-01T02:26:56.495Z,91.70
2022-11-01T02:29:35.196Z,91.70
2022-11-01T02:32:26.987Z,91.70
2022-11-01T02:35:26.991Z,91.70
2022-11-01T02:38:05.277Z,91.70
2022-11-01T02:40:52.487Z,91.70
2022-11-01T02:43:24.451Z,91.70
2022-11-01T02:45:51.908Z,91.70
2022-11-01T02:48:21.759Z,91.60
2022-11-01T02:50:56.614Z,91.60
2022-11-01T02:53:23.619Z,91.60
2022-11-01T02:55:54.161Z,91.60
2022-11-01T02:58:25.034Z,91.60
2022-11-01T03:00:52.204Z,91.60
2022-11-01T03:03:34.650Z,91.60
2022-11-01T03:06:01.496Z,91.60
2022-11-01T03:08:38.614Z,91.60
2022-11-01T03:11:11.275Z,91.60
2022-11-01T03:13:46.986Z,91.60
2022-11-01T03:16:32.134Z,91.60
2022-11-01T03:19:07.758Z,91.60
2022-11-01T03:21:42.109Z,91.60
2022-11-01T03:24:24.807Z,91.60
2022-11-01T03:27:00.762Z,91.60
2022-11-01T03:29:30.807Z,91.60
2022-11-01T03:31:59.431Z,91.60
2022-11-01T03:34:26.296Z,91.60
2022-11-01T03:36:57.725Z,91.60
2022-11-01T03:39:51.922Z,91.60
2022-11-01T03:42:22.439Z,91.70
2022-11-01T03:44:54.216Z,91.60
2022-11-01T03:47:21.059Z,91.70
2022-11-01T03:49:47.830Z,91.60
2022-11-01T03:52:14.499Z,91.60
2022-11-01T03:54:41.220Z,91.60
2022-11-01T03:57:08.002Z,91.60
2022-11-01T03:59:34.830Z,91.60
2022-11-01T04:02:01.641Z,91.60
2022-11-01T04:04:28.551Z,91.60
2022-11-01T04:06:55.263Z,91.60
2022-11-01T04:09:21.970Z,91.60
2022-11-01T04:11:48.687Z,91.60
2022-11-01T04:14:33.833Z,91.60
2022-11-01T04:17:19.321Z,91.60
2022-11-01T04:20:04.932Z,91.60
2022-11-01T04:22:31.714Z,91.70
2022-11-01T04:24:58.415Z,91.70
2022-11-01T04:27:25.130Z,91.70
2022-11-01T04:29:51.826Z,91.70
2022-11-01T04:32:18.507Z,91.60
2022-11-01T04:34:45.300Z,91.70
2022-11-01T04:37:12.362Z,91.70
2022-11-01T04:39:39.219Z,91.70
2022-11-01T04:42:05.989Z,91.70
2022-11-01T04:44:32.722Z,91.70
2022-11-01T04:46:59.490Z,91.70
2022-11-01T04:49:26.261Z,91.70
2022-11-01T04:51:52.963Z,91.70
2022-11-01T04:54:19.704Z,91.70
2022-11-01T04:56:46.397Z,91.70
2022-11-01T04:59:13.123Z,91.70
2022-11-01T05:01:39.913Z,91.70
2022-11-01T05:04:06.693Z,91.70
2022-11-01T05:06:33.377Z,91.70
2022-11-01T05:09:00.170Z,91.70
2022-11-01T05:11:27.011Z,91.70
2022-11-01T05:13:53.760Z,91.70
2022-11-01T05:16:21.275Z,91.70
2022-11-01T05:18:48.805Z,91.70
2022-11-01T05:21:15.603Z,91.70
2022-11-01T05:23:42.383Z,91.70
2022-11-01T05:26:09.133Z,91.70
2022-11-01T05:28:35.851Z,91.70
2022-11-01T05:31:02.640Z,91.70
2022-11-01T05:33:29.370Z,91.70
2022-11-01T05:35:56.167Z,91.70
2022-11-01T05:38:22.951Z,91.80
2022-11-01T05:40:50.503Z,91.80
2022-11-01T05:43:17.243Z,91.80
2022-11-01T05:45:44.200Z,91.80
2022-11-01T05:48:12.052Z,91.80
2022-11-01T05:50:38.757Z,91.80
2022-11-01T05:53:10.101Z,91.70
2022-11-01T05:55:37.251Z,91.80
2022-11-01T05:58:04.264Z,91.70
2022-11-01T06:00:31.642Z,91.70
2022-11-01T06:02:59.816Z,91.70
2022-11-01T06:05:27.892Z,91.80
2022-11-01T06:07:54.685Z,91.80
2022-11-01T06:10:21.591Z,91.80
2022-11-01T06:12:48.398Z,91.80
2022-11-01T06:15:15.213Z,91.80
2022-11-01T06:17:41.944Z,91.80
2022-11-01T06:20:09.234Z,91.80
2022-11-01T06:22:36.680Z,91.80
2022-11-01T06:25:04.111Z,91.80
2022-11-01T06:27:30.939Z,91.80
2022-11-01T06:29:57.714Z,91.80
2022-11-01T06:32:24.411Z,91.90
2022-11-01T06:34:51.124Z,91.90
2022-11-01T06:37:17.834Z,91.90
2022-11-01T06:39:44.528Z,91.90
2022-11-01T06:42:11.239Z,91.90
2022-11-01T06:44:37.970Z,91.90
2022-11-01T06:47:04.980Z,91.90
2022-11-01T06:49:31.799Z,92.00
2022-11-01T06:51:58.534Z,92.00
2022-11-01T06:54:25.759Z,92.00
2022-11-01T06:56:52.503Z,92.00
2022-11-01T06:59:19.237Z,92.10
2022-11-01T07:01:46.066Z,92.10
2022-11-01T07:04:13.091Z,92.10
2022-11-01T07:06:40.120Z,92.10
2022-11-01T07:09:06.865Z,92.10
2022-11-01T07:11:33.980Z,92.20
2022-11-01T07:14:00.759Z,92.00
2022-11-01T07:16:27.854Z,92.00
2022-11-01T07:18:54.682Z,92.10
2022-11-01T07:21:21.700Z,92.00
2022-11-01T07:23:48.723Z,92.00
2022-11-01T07:26:15.586Z,92.00
2022-11-01T07:28:42.351Z,92.10
2022-11-01T07:31:09.033Z,92.10
2022-11-01T07:33:35.827Z,92.10
2022-11-01T07:36:03.383Z,92.10
2022-11-01T07:38:52.910Z,92.10
2022-11-01T07:41:19.585Z,92.20
2022-11-01T07:43:46.291Z,92.20
2022-11-01T07:46:13.008Z,92.20
2022-11-01T07:48:39.870Z,92.20
2022-11-01T07:51:08.141Z,92.20
2022-11-01T07:53:35.035Z,92.30
2022-11-01T07:56:02.274Z,92.30
2022-11-01T07:58:29.208Z,92.30
2022-11-01T08:00:56.436Z,92.40
2022-11-01T08:03:23.908Z,92.40
2022-11-01T08:05:50.636Z,92.40
2022-11-01T08:08:18.239Z,92.40
2022-11-01T08:10:45.176Z,92.50
2022-11-01T08:13:19.315Z,92.50
2022-11-01T08:15:47.390Z,92.40
2022-11-01T08:18:15.037Z,92.40
2022-11-01T08:20:42.208Z,92.40
2022-11-01T08:23:09.192Z,92.40
2022-11-01T08:25:36.144Z,92.50
2022-11-01T08:28:10.525Z,92.50
2022-11-01T08:30:39.002Z,92.50
2022-11-01T08:33:06.720Z,92.60
2022-11-01T08:35:34.504Z,92.70
2022-11-01T08:38:03.176Z,92.80
2022-11-01T08:40:30.379Z,92.90
2022-11-01T08:42:57.490Z,92.90
2022-11-01T08:45:25.106Z,92.30
2022-11-01T08:48:00.741Z,91.00
2022-11-01T08:50:27.878Z,85.60
2022-11-01T08:52:54.630Z,76.90
2022-11-01T08:55:21.889Z,74.90
2022-11-01T08:57:48.953Z,67.90
2022-11-01T09:00:16.774Z,65.30
2022-11-01T09:02:43.528Z,63.70
2022-11-01T09:05:10.385Z,66.70
2022-11-01T09:07:37.928Z,68.30
2022-11-01T09:10:05.499Z,67.30
2022-11-01T09:12:32.299Z,65.10
2022-11-01T09:14:59.079Z,68.50
2022-11-01T09:17:25.788Z,67.90
2022-11-01T09:19:52.568Z,60.20
2022-11-01T09:22:19.343Z,56.20
2022-11-01T09:24:46.041Z,50.10
2022-11-01T09:27:12.874Z,48.30
2022-11-01T09:29:40.276Z,40.50
2022-11-01T09:32:06.976Z,32.20
2022-11-01T09:34:34.327Z,30.30
2022-11-01T09:37:01.574Z,29.30
2022-11-01T09:39:28.309Z,32.40
2022-11-01T09:41:59.913Z,27.00
2022-11-01T09:44:37.424Z,36.40
2022-11-01T09:47:25.394Z,37.50
2022-11-01T09:50:11.947Z,28.00
2022-11-01T09:52:41.011Z,25.10
2022-11-01T09:55:21.910Z,20.70
2022-11-01T09:58:02.298Z,30.00
2022-11-01T10:00:35.905Z,26.30
2022-11-01T10:03:21.279Z,25.80
2022-11-01T10:06:02.557Z,25.30
2022-11-01T10:08:47.873Z,18.30
2022-11-01T10:11:51.280Z,14.50
2022-11-01T10:14:28.228Z,23.50
2022-11-01T10:17:16.255Z,17.00
2022-11-01T10:19:49.699Z,14.30
2022-11-01T10:22:37.876Z,12.60
2022-11-01T10:25:19.792Z,8.60
2022-11-01T10:27:58.498Z,10.00
2022-11-01T10:30:27.254Z,6.70
2022-11-01T10:33:02.682Z,9.50
2022-11-01T10:35:35.190Z,7.90
2022-11-01T10:38:59.220Z,4.30
2022-11-01T10:41:41.194Z,3.00
2022-11-01T10:44:16.450Z,3.30
2022-11-01T10:46:47.972Z,1.00
2022-11-01T10:52:28.344Z,1.00
2022-11-01T10:54:56.699Z,1.00
2022-11-01T10:57:38.238Z,1.00
2022-11-01T11:00:14.110Z,1.00
2022-11-01T11:02:46.065Z,1.00
2022-11-01T11:05:14.010Z,1.00
2022-11-01T11:07:41.415Z,1.00
2022-11-01T11:10:27.330Z,1.00
2022-11-01T11:12:59.170Z,1.00
2022-11-01T11:15:45.731Z,1.00
2022-11-01T11:18:23.802Z,1.00
2022-11-01T11:20:52.635Z,1.00
2022-11-01T11:23:22.099Z,1.00
2022-11-01T11:25:50.520Z,1.00
2022-11-01T11:28:30.427Z,1.00
2022-11-01T11:31:11.107Z,1.00
2022-11-01T11:33:38.019Z,1.00
2022-11-01T11:36:05.651Z,1.00
2022-11-01T11:38:51.283Z,1.00
2022-11-01T11:41:36.636Z,1.00
2022-11-01T11:44:03.755Z,1.00
2022-11-01T11:46:30.806Z,1.00
2022-11-01T11:49:07.033Z,1.00
2022-11-01T11:51:38.114Z,1.00
2022-11-01T11:54:37.554Z,1.00
2022-11-01T11:57:16.499Z,1.00
2022-11-01T12:02:24.933Z,1.00
2022-11-01T12:05:01.579Z,1.00
2022-11-01T12:07:35.112Z,1.00
2022-11-01T12:10:26.100Z,1.00
2022-11-01T12:12:54.277Z,1.00
2022-11-01T12:15:29.100Z,1.00
2022-11-01T12:17:56.450Z,1.00
2022-11-01T12:20:35.443Z,1.00
2022-11-01T12:23:24.154Z,1.00
2022-11-01T12:25:52.090Z,1.00
2022-11-01T12:28:36.469Z,1.00
2022-11-01T12:31:17.892Z,1.00
2022-11-01T12:33:50.515Z,1.00
2022-11-01T12:36:22.586Z,1.00
2022-11-01T12:38:52.328Z,1.00
2022-11-01T12:41:35.251Z,1.00
2022-11-01T12:44:28.931Z,1.00
2022-11-01T12:47:28.025Z,1.00
2022-11-01T12:50:07.118Z,1.00
2022-11-01T12:52:43.966Z,1.00
2022-11-01T12:55:32.159Z,1.00
2022-11-01T12:57:58.989Z,1.00
2022-11-01T13:00:49.236Z,1.00
2022-11-01T13:03:15.894Z,1.00
2022-11-01T13:05:42.525Z,1.00
2022-11-01T13:08:27.970Z,1.00
2022-11-01T13:11:03.288Z,1.00
2022-11-01T13:13:50.167Z,1.00
2022-11-01T13:16:25.986Z,1.00
2022-11-01T13:18:58.833Z,1.00
2022-11-01T13:21:42.951Z,1.00
2022-11-01T13:24:44.242Z,1.00
2022-11-01T13:27:24.421Z,1.00
2022-11-01T13:30:01.724Z,1.00
2022-11-01T13:32:34.538Z,1.00
2022-11-01T13:35:38.961Z,1.00
2022-11-01T13:38:24.062Z,1.00
2022-11-01T13:41:09.480Z,1.00
2022-11-01T13:44:06.595Z,1.00
2022-11-01T13:46:41.831Z,1.00
2022-11-01T13:49:08.495Z,1.00
2022-11-01T13:52:09.072Z,1.00
2022-11-01T13:54:54.386Z,1.00
2022-11-01T13:57:25.649Z,1.00
2022-11-01T14:00:06.959Z,1.00
2022-11-01T14:02:42.387Z,1.00
2022-11-01T14:05:12.668Z,1.00
2022-11-01T14:07:45.420Z,1.00
2022-11-01T14:10:18.037Z,1.00
2022-11-01T14:13:05.585Z,1.00
2022-11-01T14:15:34.780Z,1.00
2022-11-01T14:18:13.347Z,1.00
2022-11-01T14:20:42.820Z,1.00
2022-11-01T14:23:28.113Z,1.00
2022-11-01T14:26:22.834Z,1.00
2022-11-01T14:28:51.547Z,1.00
2022-11-01T14:31:22.043Z,1.00
2022-11-01T14:33:48.930Z,1.00
2022-11-01T14:36:19.530Z,1.00
2022-11-01T14:38:52.402Z,1.00
2022-11-01T14:41:20.547Z,1.00
2022-11-01T14:43:52.288Z,1.00
2022-11-01T14:46:25.122Z,1.00
2022-11-01T14:48:57.609Z,1.00
2022-11-01T14:51:28.559Z,1.00
2022-11-01T14:54:06.789Z,1.00
2022-11-01T14:56:40.919Z,1.00
2022-11-01T14:59:28.494Z,1.00
2022-11-01T15:02:02.714Z,1.00
2022-11-01T15:04:32.721Z,1.00
2022-11-01T15:07:00.623Z,1.00
2022-11-01T15:09:30.371Z,1.00
2022-11-01T15:12:09.110Z,1.00
2022-11-01T15:14:41.617Z,1.00
2022-11-01T15:17:22.623Z,1.00
2022-11-01T15:19:54.404Z,1.00
2022-11-01T15:22:27.846Z,1.00
2022-11-01T15:25:00.454Z,1.00
2022-11-01T15:27:41.879Z,1.00
2022-11-01T15:30:20.291Z,1.00
2022-11-01T15:33:10.426Z,1.00
2022-11-01T15:35:37.101Z,1.00
2022-11-01T15:38:03.832Z,1.00
2022-11-01T15:40:35.042Z,1.00
2022-11-01T15:43:03.683Z,1.00
2022-11-01T15:45:34.418Z,1.00
2022-11-01T15:48:08.565Z,1.00
2022-11-01T15:50:39.256Z,1.00
2022-11-01T15:53:12.562Z,2.90
2022-11-01T15:55:45.186Z,4.90
2022-11-01T15:58:20.052Z,12.20
2022-11-01T16:00:51.020Z,20.10
2022-11-01T16:03:27.632Z,27.00
2022-11-01T16:05:59.729Z,38.60
2022-11-01T16:08:42.091Z,36.40
2022-11-01T16:11:09.436Z,39.10
2022-11-01T16:13:37.413Z,38.20
2022-11-01T16:16:11.390Z,34.70
2022-11-01T16:18:41.593Z,41.00
2022-11-01T16:21:20.372Z,49.30
2022-11-01T16:23:57.906Z,45.80
2022-11-01T16:26:24.636Z,50.00
2022-11-01T16:28:53.314Z,60.40
2022-11-01T16:31:28.444Z,58.80
2022-11-01T16:33:57.133Z,57.90
2022-11-01T16:36:32.055Z,61.80
2022-11-01T16:38:58.922Z,61.60
2022-11-01T16:41:40.701Z,63.10
2022-11-01T16:44:15.979Z,65.20
2022-11-01T16:46:43.155Z,66.10
2022-11-01T16:49:20.444Z,61.10
2022-11-01T16:51:47.569Z,66.10
2022-11-01T16:54:14.939Z,66.90
2022-11-01T16:56:48.186Z,67.10
2022-11-01T16:59:33.891Z,68.80
2022-11-01T17:02:02.495Z,77.50
2022-11-01T17:04:29.716Z,83.60
2022-11-01T17:06:59.702Z,81.30
2022-11-01T17:09:29.373Z,81.40
2022-11-01T17:11:56.255Z,83.30
2022-11-01T17:14:23.009Z,81.00
2022-11-01T17:16:52.071Z,83.70
2022-11-01T17:19:21.832Z,81.90
2022-11-01T17:21:50.258Z,87.00
2022-11-01T17:24:20.381Z,86.90
2022-11-01T17:26:48.697Z,86.80
2022-11-01T17:29:15.487Z,85.80
2022-11-01T17:31:42.201Z,86.00
2022-11-01T17:34:09.034Z,85.20
2022-11-01T17:36:37.554Z,86.30
2022-11-01T17:39:04.578Z,84.90
2022-11-01T17:41:31.346Z,88.30
2022-11-01T17:43:58.163Z,90.10
2022-11-01T17:46:26.052Z,90.20
2022-11-01T17:48:52.794Z,89.60
2022-11-01T17:51:20.050Z,88.80
2022-11-01T17:53:47.010Z,87.50
2022-11-01T17:56:13.689Z,88.00
2022-11-01T17:58:40.377Z,87.40
2022-11-01T18:01:08.317Z,88.20
2022-11-01T18:03:35.197Z,88.10
2022-11-01T18:06:02.022Z,88.10
2022-11-01T18:08:33.554Z,89.90
2022-11-01T18:11:21.851Z,90.10
2022-11-01T18:14:18.030Z,89.80
2022-11-01T18:16:56.757Z,89.90
2022-11-01T18:19:59.091Z,89.80
2022-11-01T18:22:49.546Z,88.30
2022-11-01T18:25:26.992Z,90.00
2022-11-01T18:27:56.263Z,90.10
2022-11-01T18:30:23.403Z,90.20
2022-11-01T18:33:04.897Z,90.10
2022-11-01T18:35:37.664Z,89.30
2022-11-01T18:38:17.963Z,90.00
2022-11-01T18:41:01.575Z,90.10
2022-11-01T18:43:37.897Z,90.00
2022-11-01T18:46:31.274Z,90.00
2022-11-01T18:49:01.920Z,90.00
2022-11-01T18:51:33.738Z,89.10
2022-11-01T18:54:09.393Z,89.30
2022-11-01T18:56:40.687Z,90.10
2022-11-01T18:59:20.415Z,90.10
2022-11-01T19:01:54.288Z,87.80
2022-11-01T19:04:26.210Z,87.70
2022-11-01T19:07:12.552Z,88.30
2022-11-01T19:09:48.426Z,87.90
2022-11-01T19:12:25.495Z,89.80
2022-11-01T19:15:21.843Z,89.50
2022-11-01T19:17:56.741Z,90.00
2022-11-01T19:20:35.595Z,88.40
2022-11-01T19:23:15.141Z,88.50
2022-11-01T19:25:45.680Z,88.60
2022-11-01T19:28:15.422Z,89.30
2022-11-01T19:30:51.208Z,89.30
2022-11-01T19:33:34.481Z,90.20
2022-11-01T19:36:11.362Z,90.40
2022-11-01T19:38:43.226Z,90.40
2022-11-01T19:41:13.743Z,90.30
2022-11-01T19:43:40.687Z,89.80
2022-11-01T19:46:16.680Z,90.10
2022-11-01T19:48:43.495Z,89.40
2022-11-01T19:51:23.773Z,89.90
2022-11-01T19:53:51.446Z,88.60
2022-11-01T19:56:23.995Z,89.00
2022-11-01T19:58:54.979Z,89.60
2022-11-01T20:01:36.222Z,88.50
2022-11-01T20:04:31.202Z,88.60
2022-11-01T20:07:02.124Z,88.60
2022-11-01T20:09:32.513Z,88.20
2022-11-01T20:11:59.294Z,89.60
2022-11-01T20:14:26.063Z,90.10
2022-11-01T20:16:52.822Z,89.80
2022-11-01T20:19:20.462Z,89.70
2022-11-01T20:21:47.562Z,90.20
2022-11-01T20:24:15.650Z,90.10
2022-11-01T20:26:42.790Z,89.70
2022-11-01T20:29:10.034Z,89.70
2022-11-01T20:31:37.187Z,90.00
2022-11-01T20:34:04.258Z,90.00
2022-11-01T20:36:31.078Z,89.10
2022-11-01T20:38:57.847Z,88.50
2022-11-01T20:41:24.597Z,88.10
2022-11-01T20:43:51.345Z,89.50
2022-11-01T20:46:18.215Z,89.70
2022-11-01T20:48:48.261Z,90.20
2022-11-01T20:51:15.092Z,90.30
2022-11-01T20:53:41.982Z,90.20
2022-11-01T20:56:09.475Z,90.10
2022-11-01T20:58:40.333Z,89.50
2022-11-01T21:01:15.029Z,89.20
2022-11-01T21:03:41.828Z,88.70
2022-11-01T21:06:16.946Z,89.50
2022-11-01T21:08:47.071Z,89.90
2022-11-01T21:11:22.280Z,89.30
2022-11-01T21:13:51.697Z,89.80
2022-11-01T21:16:29.326Z,88.70
2022-11-01T21:19:02.151Z,88.90
2022-11-01T21:21:45.331Z,89.40
2022-11-01T21:24:35.108Z,89.40
2022-11-01T21:27:23.486Z,89.30
2022-11-01T21:29:51.447Z,88.30
2022-11-01T21:32:42.528Z,87.70
2022-11-01T21:35:20.869Z,88.80
2022-11-01T21:37:54.231Z,89.60
2022-11-01T21:40:29.913Z,89.30
2022-11-01T21:42:57.651Z,89.80
2022-11-01T21:45:29.660Z,89.60
2022-11-01T21:48:02.998Z,88.70
2022-11-01T21:50:30.184Z,89.30
2022-11-01T21:52:56.869Z,88.80
2022-11-01T21:55:23.630Z,89.50
2022-11-01T21:57:50.418Z,89.70
2022-11-01T22:00:17.313Z,88.60
2022-11-01T22:02:44.097Z,88.00
2022-11-01T22:05:10.856Z,88.00
2022-11-01T22:07:37.588Z,87.80
2022-11-01T22:10:04.798Z,87.20
2022-11-01T22:12:32.124Z,87.60
2022-11-01T22:14:59.026Z,88.20
2022-11-01T22:17:25.993Z,88.30
2022-11-01T22:19:52.803Z,89.30
2022-11-01T22:22:19.562Z,89.20
2022-11-01T22:24:46.295Z,88.90
2022-11-01T22:27:13.015Z,87.60
2022-11-01T22:29:39.707Z,87.10
2022-11-01T22:32:06.411Z,86.60
2022-11-01T22:34:33.149Z,87.80
2022-11-01T22:37:00.657Z,88.10
2022-11-01T22:39:29.750Z,88.00
2022-11-01T22:41:56.483Z,89.30
2022-11-01T22:44:27.358Z,89.50
2022-11-01T22:46:58.940Z,90.10
2022-11-01T22:49:40.365Z,90.20
2022-11-01T22:52:12.900Z,90.30
2022-11-01T22:54:52.036Z,90.40
2022-11-01T22:57:22.551Z,90.50
2022-11-01T22:59:49.235Z,90.50
2022-11-01T23:02:33.541Z,90.60
2022-11-01T23:05:06.518Z,90.70
2022-11-01T23:07:34.670Z,90.80
2022-11-01T23:10:07.428Z,90.60
2022-11-01T23:12:55.223Z,90.50
2022-11-01T23:15:33.423Z,95.10
2022-11-01T23:18:11.486Z,95.20
2022-11-01T23:20:40.747Z,95.20
2022-11-01T23:23:17.980Z,95.10
2022-11-01T23:25:45.226Z,95.00
2022-11-01T23:28:13.138Z,95.30
2022-11-01T23:30:42.326Z,95.30
2022-11-01T23:33:12.788Z,95.40
2022-11-01T23:35:39.553Z,95.40
2022-11-01T23:38:32.645Z,95.50
2022-11-01T23:40:59.421Z,95.50
2022-11-01T23:43:40.945Z,95.40
2022-11-01T23:46:10.781Z,95.40
2022-11-01T23:48:43.140Z,95.40
2022-11-01T23:51:18.514Z,95.30
2022-11-01T23:53:47.070Z,95.40
2022-11-01T23:56:17.563Z,95.50
2022-11-01T23:58:44.307Z,95.50
